Time;durP1;ratioP1;P1;durP2;ratioP2;P2;SDS_P1;SDS_P2;PMS_P1;PMS_P2;Temp;Humidity;BMP_temperature;BMP_pressure;BME280_temperature;BME280_humidity;BME280_pressure;Samples;Min_cycle;Max_cycle;Signal;HPM_P1;HPM_P2
2021/08/12 00:02:10;;;;;;;6.80;3.78;;;18.90;99.90;;;;;;5053467;28;20233;-61
2021/08/12 00:04:37;;;;;;;6.18;4.38;;;19.00;99.90;;;;;;5053359;28;20206;-62
2021/08/12 00:07:04;;;;;;;5.18;4.32;;;19.00;99.90;;;;;;5053433;28;20228;-62
2021/08/12 00:09:32;;;;;;;7.25;4.80;;;19.00;99.90;;;;;;5053215;28;20669;-60
2021/08/12 00:11:59;;;;;;;10.55;3.90;;;18.90;99.90;;;;;;5053330;28;20599;-61
2021/08/12 00:14:26;;;;;;;7.95;3.67;;;18.90;99.90;;;;;;5053040;28;20256;-61
2021/08/12 00:16:53;;;;;;;5.85;4.03;;;18.80;99.90;;;;;;5053166;28;20198;-61
2021/08/12 00:19:19;;;;;;;6.00;3.97;;;18.70;99.90;;;;;;5052900;28;20260;-61
2021/08/12 00:21:46;;;;;;;7.18;4.65;;;18.70;99.90;;;;;;5052785;28;20242;-61
2021/08/12 00:24:13;;;;;;;4.93;4.35;;;18.50;99.90;;;;;;5052893;28;20212;-62
2021/08/12 00:26:41;;;;;;;6.65;4.45;;;18.40;99.90;;;;;;5052791;28;20631;-61
2021/08/12 00:29:08;;;;;;;6.32;4.30;;;18.30;99.90;;;;;;5052801;28;20209;-61
2021/08/12 00:31:35;;;;;;;5.13;4.13;;;18.20;99.90;;;;;;5052683;28;20249;-61
2021/08/12 00:34:02;;;;;;;5.53;4.47;;;18.10;99.90;;;;;;5052658;28;20214;-61
2021/08/12 00:36:28;;;;;;;8.60;4.35;;;18.10;99.90;;;;;;5052932;28;20209;-61
2021/08/12 00:38:55;;;;;;;9.30;4.10;;;18.20;99.90;;;;;;5052790;28;20214;-61
2021/08/12 00:41:22;;;;;;;5.07;4.30;;;18.20;99.90;;;;;;5052736;28;20205;-62
2021/08/12 00:43:50;;;;;;;8.35;4.30;;;18.30;99.90;;;;;;5052579;28;20201;-62
2021/08/12 00:46:17;;;;;;;5.75;4.13;;;18.30;99.90;;;;;;5051687;28;20229;-62
2021/08/12 00:48:44;;;;;;;8.02;4.78;;;18.30;99.90;;;;;;5052387;28;20673;-62
2021/08/12 00:51:11;;;;;;;8.65;4.57;;;18.30;99.90;;;;;;5052644;28;20624;-62
2021/08/12 00:53:38;;;;;;;5.95;4.00;;;18.30;99.90;;;;;;5052420;28;20229;-63
2021/08/12 00:56:05;;;;;;;5.78;3.75;;;18.40;99.90;;;;;;5052535;28;20205;-60
2021/08/12 00:58:35;;;;;;;4.57;4.13;;;18.40;99.90;;;;;;5052325;28;20619;-61
2021/08/12 01:01:03;;;;;;;6.80;3.97;;;18.40;99.90;;;;;;5052348;28;20201;-62
2021/08/12 01:03:30;;;;;;;9.23;4.78;;;18.40;99.90;;;;;;5052391;28;20314;-61
2021/08/12 01:05:58;;;;;;;6.30;4.50;;;18.40;99.90;;;;;;5052328;28;20221;-61
2021/08/12 01:08:40;;;;;;;5.15;3.70;;;18.40;99.90;;;;;;5052574;28;20202;-62
2021/08/12 01:11:16;;;;;;;5.63;3.88;;;18.30;99.90;;;;;;5052253;28;20209;-61
2021/08/12 01:13:57;;;;;;;5.63;4.40;;;18.30;99.90;;;;;;5051894;28;20213;-61
2021/08/12 01:16:29;;;;;;;4.50;4.05;;;18.30;99.90;;;;;;5052279;28;20266;-61
2021/08/12 01:19:03;;;;;;;5.55;4.18;;;18.40;99.90;;;;;;5052154;28;20206;-61
2021/08/12 01:21:51;;;;;;;4.88;3.88;;;18.50;99.90;;;;;;5051815;28;20251;-63
2021/08/12 01:24:19;;;;;;;5.78;4.28;;;18.50;99.90;;;;;;5051922;28;20255;-61
2021/08/12 01:26:51;;;;;;;5.88;4.30;;;18.50;99.90;;;;;;5051664;28;20724;-62
2021/08/12 01:29:35;;;;;;;5.68;4.18;;;18.40;99.90;;;;;;5051725;28;20264;-62
2021/08/12 01:32:11;;;;;;;6.63;4.20;;;18.50;99.90;;;;;;5051501;28;20724;-62
2021/08/12 01:34:57;;;;;;;6.53;4.18;;;18.40;99.90;;;;;;5052061;28;20213;-62
2021/08/12 01:37:26;;;;;;;4.38;3.85;;;18.40;99.90;;;;;;5051108;28;20263;-61
2021/08/12 01:39:54;;;;;;;6.70;4.05;;;18.40;99.90;;;;;;5051557;28;20263;-61
2021/08/12 01:42:26;;;;;;;5.00;4.07;;;18.30;99.90;;;;;;5051411;28;20233;-62
2021/08/12 01:44:55;;;;;;;5.88;4.20;;;18.40;99.90;;;;;;5051382;28;20236;-62
2021/08/12 01:47:23;;;;;;;8.90;4.80;;;18.30;99.90;;;;;;5051299;28;20697;-63
2021/08/12 01:49:52;;;;;;;5.88;4.60;;;18.20;99.90;;;;;;5051230;28;20255;-61
2021/08/12 01:52:22;;;;;;;6.80;4.60;;;18.30;99.90;;;;;;5051360;28;20225;-62
2021/08/12 01:54:50;;;;;;;6.88;4.63;;;18.20;99.90;;;;;;5051254;28;20247;-62
2021/08/12 01:57:18;;;;;;;7.20;4.63;;;18.20;99.90;;;;;;5051106;28;20201;-63
2021/08/12 01:59:45;;;;;;;5.90;4.50;;;18.20;99.90;;;;;;5051319;28;20208;-63
2021/08/12 02:02:13;;;;;;;7.13;4.40;;;18.20;99.90;;;;;;5051245;28;20302;-62
2021/08/12 02:04:41;;;;;;;8.27;4.85;;;18.10;99.90;;;;;;5051080;28;20247;-61
2021/08/12 02:07:11;;;;;;;6.30;4.57;;;18.20;99.90;;;;;;5051426;28;20225;-61
2021/08/12 02:09:40;;;;;;;5.00;4.50;;;18.10;99.90;;;;;;5051006;28;20248;-62
2021/08/12 02:12:09;;;;;;;4.75;4.32;;;18.20;99.90;;;;;;5051110;28;20230;-62
2021/08/12 02:14:36;;;;;;;5.87;4.07;;;18.20;99.90;;;;;;5051021;28;20205;-61
2021/08/12 02:17:03;;;;;;;5.53;4.72;;;18.20;99.90;;;;;;5051465;28;20209;-62
2021/08/12 02:19:31;;;;;;;6.95;4.88;;;18.20;99.90;;;;;;5050810;28;20209;-61
2021/08/12 02:22:01;;;;;;;7.85;4.68;;;18.20;99.90;;;;;;5050871;28;20233;-62
2021/08/12 02:24:36;;;;;;;7.78;4.50;;;18.20;99.90;;;;;;5050835;28;20665;-62
2021/08/12 02:27:09;;;;;;;9.38;4.72;;;18.20;99.90;;;;;;5051225;28;20225;-62
2021/08/12 02:29:36;;;;;;;7.90;4.57;;;18.10;99.90;;;;;;5051029;28;20205;-63
2021/08/12 02:32:06;;;;;;;5.63;4.25;;;18.10;99.90;;;;;;5050684;28;20320;-61
2021/08/12 02:34:35;;;;;;;6.28;4.55;;;18.10;99.90;;;;;;5050613;28;20229;-61
2021/08/12 02:37:06;;;;;;;5.68;4.80;;;18.00;99.90;;;;;;5052851;28;20201;-61
2021/08/12 02:39:34;;;;;;;6.40;5.07;;;18.00;99.90;;;;;;5054548;28;20211;-62
2021/08/12 02:42:03;;;;;;;4.95;4.40;;;18.00;99.90;;;;;;5054877;28;20229;-62
2021/08/12 02:44:31;;;;;;;5.40;4.90;;;17.90;99.90;;;;;;5055726;28;20649;-61
2021/08/12 02:47:00;;;;;;;6.95;4.75;;;17.90;99.90;;;;;;5051829;28;20226;-61
2021/08/12 02:49:28;;;;;;;7.90;4.65;;;17.90;99.90;;;;;;5050455;28;20725;-62
2021/08/12 02:51:58;;;;;;;6.15;4.80;;;17.90;99.90;;;;;;5050861;28;20717;-62
2021/08/12 02:54:26;;;;;;;10.52;5.28;;;17.90;99.90;;;;;;5050776;28;20205;-62
2021/08/12 02:56:54;;;;;;;7.28;4.70;;;17.90;99.90;;;;;;5050713;28;20205;-62
2021/08/12 02:59:21;;;;;;;7.68;4.72;;;17.90;99.90;;;;;;5050558;28;20209;-62
2021/08/12 03:01:49;;;;;;;8.52;5.10;;;17.90;99.90;;;;;;5050345;28;20229;-62
2021/08/12 03:04:19;;;;;;;7.03;4.93;;;17.80;99.90;;;;;;5050504;28;20217;-62
2021/08/12 03:06:47;;;;;;;5.40;4.50;;;17.80;99.90;;;;;;5050583;28;20287;-63
2021/08/12 03:09:15;;;;;;;5.80;5.10;;;17.90;99.90;;;;;;5052629;28;20213;-62
2021/08/12 03:11:43;;;;;;;10.02;4.95;;;17.80;99.90;;;;;;5054400;28;20291;-62
2021/08/12 03:14:10;;;;;;;9.07;5.05;;;17.80;99.90;;;;;;5054305;28;20641;-61
2021/08/12 03:16:39;;;;;;;6.25;4.60;;;17.70;99.90;;;;;;5054202;28;20210;-62
2021/08/12 03:19:07;;;;;;;7.32;5.10;;;17.70;99.90;;;;;;5054303;28;20240;-61
2021/08/12 03:21:33;;;;;;;8.05;4.93;;;17.70;99.90;;;;;;5054393;28;20252;-62
2021/08/12 03:24:04;;;;;;;7.10;5.53;;;17.70;99.90;;;;;;5054084;28;20209;-63
2021/08/12 03:26:32;;;;;;;5.43;4.90;;;17.60;99.90;;;;;;5054202;28;20226;-62
2021/08/12 03:28:58;;;;;;;8.43;5.07;;;17.60;99.90;;;;;;5054015;28;20581;-62
2021/08/12 03:31:25;;;;;;;6.18;5.05;;;17.60;99.90;;;;;;5054511;28;20205;-61
2021/08/12 03:33:52;;;;;;;7.65;5.43;;;17.70;99.90;;;;;;5054588;28;20205;-61
2021/08/12 03:36:21;;;;;;;7.17;5.30;;;17.60;99.90;;;;;;5054681;28;20201;-60
2021/08/12 03:38:47;;;;;;;7.33;5.20;;;17.70;99.90;;;;;;5053843;28;20209;-61
2021/08/12 03:41:14;;;;;;;8.03;5.43;;;17.70;99.90;;;;;;5054366;28;20661;-61
2021/08/12 03:43:41;;;;;;;7.10;5.32;;;17.60;99.90;;;;;;5053634;28;20209;-62
2021/08/12 03:46:07;;;;;;;6.25;4.95;;;17.70;99.90;;;;;;5053689;28;20209;-62
2021/08/12 03:48:34;;;;;;;6.50;4.90;;;17.70;99.90;;;;;;5053739;28;20255;-62
2021/08/12 03:51:01;;;;;;;5.30;4.63;;;17.80;99.90;;;;;;5053725;28;20209;-62
2021/08/12 03:53:29;;;;;;;6.50;4.93;;;17.70;99.90;;;;;;5053517;28;20239;-62
2021/08/12 03:55:59;;;;;;;7.88;5.32;;;17.70;99.90;;;;;;5053961;28;20444;-62
2021/08/12 03:58:25;;;;;;;7.38;5.15;;;17.70;99.90;;;;;;5053400;28;20665;-62
2021/08/12 04:00:54;;;;;;;7.82;5.40;;;17.70;99.90;;;;;;5053551;28;20283;-62
2021/08/12 04:03:21;;;;;;;6.77;4.77;;;17.60;99.90;;;;;;5053381;28;20642;-61
2021/08/12 04:05:47;;;;;;;8.05;4.80;;;17.60;99.90;;;;;;5053143;28;20673;-62
2021/08/12 04:08:14;;;;;;;7.03;5.43;;;17.60;99.90;;;;;;5053094;28;20505;-62
2021/08/12 04:10:42;;;;;;;13.48;5.55;;;17.60;99.90;;;;;;5053127;28;20209;-62
2021/08/12 04:13:09;;;;;;;5.93;4.93;;;17.60;99.90;;;;;;5053267;28;20267;-62
2021/08/12 04:15:36;;;;;;;6.55;5.10;;;17.70;99.90;;;;;;5052912;28;20692;-61
2021/08/12 04:18:03;;;;;;;6.60;5.10;;;17.70;99.90;;;;;;5053215;28;20202;-61
2021/08/12 04:20:30;;;;;;;6.20;4.90;;;17.70;99.90;;;;;;5052442;28;20241;-61
2021/08/12 04:22:56;;;;;;;10.15;5.28;;;17.80;99.90;;;;;;5052731;28;20237;-61
2021/08/12 04:25:23;;;;;;;8.07;5.17;;;17.80;99.90;;;;;;5052934;28;20228;-62
2021/08/12 04:27:51;;;;;;;10.82;5.32;;;17.80;99.90;;;;;;5052720;28;20226;-62
2021/08/12 04:30:18;;;;;;;7.22;4.63;;;17.90;99.90;;;;;;5053056;28;20267;-61
2021/08/12 04:32:45;;;;;;;6.90;4.88;;;18.00;99.90;;;;;;5052506;28;20649;-60
2021/08/12 04:35:11;;;;;;;9.65;5.15;;;18.00;99.90;;;;;;5052848;28;20206;-63
2021/08/12 04:37:43;;;;;;;6.93;5.05;;;18.20;99.90;;;;;;5052696;28;20816;-62
2021/08/12 04:40:11;;;;;;;9.68;5.22;;;18.20;99.90;;;;;;5053149;28;20227;-63
2021/08/12 04:42:38;;;;;;;8.90;4.80;;;18.30;99.90;;;;;;5052750;28;20234;-63
2021/08/12 04:45:07;;;;;;;5.55;4.40;;;18.40;99.90;;;;;;5052582;28;20209;-61
2021/08/12 04:47:34;;;;;;;6.68;5.05;;;18.50;99.90;;;;;;5052466;28;20232;-62
2021/08/12 04:50:01;;;;;;;6.82;4.63;;;18.60;99.90;;;;;;5052246;28;20216;-62
2021/08/12 04:52:28;;;;;;;8.27;5.00;;;18.80;99.90;;;;;;5052397;28;20257;-61
2021/08/12 04:54:54;;;;;;;10.95;5.25;;;18.90;99.90;;;;;;5052324;28;20263;-62
2021/08/12 04:57:21;;;;;;;5.30;4.65;;;19.00;99.90;;;;;;5052717;28;20209;-63
2021/08/12 04:59:48;;;;;;;7.38;4.60;;;19.20;99.90;;;;;;5052378;28;20206;-62
2021/08/12 05:02:16;;;;;;;7.25;6.35;;;19.30;99.90;;;;;;5052267;28;20225;-63
2021/08/12 05:04:42;;;;;;;14.23;6.05;;;19.50;99.90;;;;;;5052054;28;20673;-62
2021/08/12 05:07:09;;;;;;;6.10;4.78;;;19.80;99.90;;;;;;5051917;28;20716;-62
2021/08/12 05:09:36;;;;;;;7.88;5.30;;;20.00;99.90;;;;;;5051778;28;20297;-62
2021/08/12 05:12:04;;;;;;;8.88;4.85;;;20.10;99.90;;;;;;5052221;28;20221;-63
2021/08/12 05:14:30;;;;;;;9.27;5.22;;;20.30;99.90;;;;;;5051857;28;20209;-62
2021/08/12 05:16:57;;;;;;;9.13;6.78;;;20.50;99.90;;;;;;5051897;28;20707;-62
2021/08/12 05:19:25;;;;;;;6.03;4.93;;;20.60;99.90;;;;;;5051774;28;20232;-62
2021/08/12 05:21:52;;;;;;;7.97;5.00;;;20.80;99.90;;;;;;5051807;28;20275;-62
2021/08/12 05:24:19;;;;;;;5.65;4.47;;;20.90;99.90;;;;;;5051741;28;20209;-64
2021/08/12 05:26:45;;;;;;;5.20;4.70;;;21.00;99.90;;;;;;5051709;28;20637;-63
2021/08/12 05:29:12;;;;;;;7.28;5.05;;;21.10;99.90;;;;;;5051708;28;20217;-62
2021/08/12 05:31:39;;;;;;;7.55;5.05;;;21.10;99.90;;;;;;5051384;28;20241;-60
2021/08/12 05:34:05;;;;;;;6.95;4.53;;;21.10;99.90;;;;;;5051529;28;20209;-63
2021/08/12 05:36:33;;;;;;;9.05;5.05;;;21.10;99.90;;;;;;5051829;28;20209;-61
2021/08/12 05:39:00;;;;;;;6.35;4.68;;;21.20;99.90;;;;;;5051800;28;20213;-63
2021/08/12 05:41:27;;;;;;;6.78;4.28;;;21.20;99.90;;;;;;5051806;28;20319;-64
2021/08/12 05:43:53;;;;;;;7.88;4.35;;;21.40;99.90;;;;;;5052066;28;20205;-61
2021/08/12 05:46:20;;;;;;;5.93;4.60;;;21.60;99.90;;;;;;5051934;28;20210;-60
2021/08/12 05:48:47;;;;;;;6.18;3.92;;;21.90;99.90;;;;;;5051879;28;20232;-60
2021/08/12 05:51:13;;;;;;;8.52;4.40;;;22.30;99.90;;;;;;5052369;28;20201;-62
2021/08/12 05:53:41;;;;;;;5.30;4.05;;;23.10;99.90;;;;;;5052082;28;20208;-60
2021/08/12 05:56:08;;;;;;;6.45;4.40;;;24.90;99.90;;;;;;5051976;28;20623;-61
2021/08/12 05:58:38;;;;;;;7.50;3.90;;;26.80;99.90;;;;;;5051514;28;20252;-61
2021/08/12 06:01:07;;;;;;;4.53;3.53;;;28.10;99.90;;;;;;5051655;28;20209;-61
2021/08/12 06:03:33;;;;;;;6.60;4.00;;;29.40;99.90;;;;;;5051805;28;20276;-62
2021/08/12 06:06:00;;;;;;;7.00;3.80;;;30.60;99.90;;;;;;5051734;28;20209;-62
2021/08/12 06:08:27;;;;;;;5.18;4.03;;;31.50;99.90;;;;;;5051751;28;20242;-61
2021/08/12 06:10:55;;;;;;;4.93;3.80;;;31.50;99.90;;;;;;5052245;28;20205;-61
2021/08/12 06:13:22;;;;;;;5.95;3.78;;;30.80;99.90;;;;;;5051080;28;20230;-61
2021/08/12 06:15:50;;;;;;;5.57;3.97;;;29.90;99.90;;;;;;5051125;28;20582;-62
2021/08/12 06:18:17;;;;;;;6.65;3.95;;;29.20;99.90;;;;;;5052927;28;20197;-63
2021/08/12 06:20:44;;;;;;;6.43;4.30;;;28.50;99.90;;;;;;5053060;28;20236;-62
2021/08/12 06:23:11;;;;;;;5.88;4.00;;;27.80;99.90;;;;;;5052592;28;20281;-62
2021/08/12 06:25:40;;;;;;;7.07;4.80;;;27.10;99.90;;;;;;5050993;28;20217;-63
2021/08/12 06:28:10;;;;;;;4.25;3.85;;;26.50;99.90;;;;;;5050742;28;20228;-62
2021/08/12 06:30:37;;;;;;;7.72;4.40;;;26.20;99.90;;;;;;5051193;28;20632;-62
2021/08/12 06:33:04;;;;;;;6.85;4.32;;;26.50;99.90;;;;;;5050888;28;20237;-63
2021/08/12 06:35:34;;;;;;;9.45;5.13;;;27.50;99.90;;;;;;5050582;28;20669;-62
2021/08/12 06:38:02;;;;;;;9.10;5.18;;;29.00;99.90;;;;;;5050694;28;20210;-62
2021/08/12 06:40:29;;;;;;;9.43;4.50;;;30.50;99.90;;;;;;5050747;28;20235;-63
2021/08/12 06:42:56;;;;;;;8.60;5.45;;;31.70;99.90;;;;;;5050764;28;20597;-62
2021/08/12 06:45:25;;;;;;;8.70;4.28;;;32.50;96.70;;;;;;5051045;28;20233;-62
2021/08/12 06:47:52;;;;;;;7.32;4.30;;;33.00;95.10;;;;;;5050780;28;20226;-62
2021/08/12 06:50:21;;;;;;;7.60;4.40;;;33.80;93.30;;;;;;5050778;28;20205;-62
2021/08/12 06:52:48;;;;;;;5.00;3.80;;;34.50;90.90;;;;;;5050721;28;20241;-63
2021/08/12 06:55:15;;;;;;;5.22;3.50;;;35.70;87.40;;;;;;5050431;28;20210;-63
2021/08/12 06:57:41;;;;;;;6.82;3.40;;;36.70;80.60;;;;;;5050632;28;20206;-62
2021/08/12 07:00:10;;;;;;;4.40;3.40;;;37.70;75.80;;;;;;5050504;28;20209;-62
2021/08/12 07:02:38;;;;;;;4.47;3.60;;;38.50;70.70;;;;;;5050371;28;20312;-63
2021/08/12 07:05:05;;;;;;;4.15;3.55;;;38.80;67.60;;;;;;5050282;28;20208;-63
2021/08/12 07:07:32;;;;;;;4.53;3.60;;;39.10;65.20;;;;;;5050326;28;20221;-63
2021/08/12 07:09:59;;;;;;;5.72;3.20;;;39.30;63.40;;;;;;5050392;28;20213;-63
2021/08/12 07:12:25;;;;;;;4.63;3.38;;;39.20;61.00;;;;;;5050378;28;20709;-63
2021/08/12 07:14:52;;;;;;;5.13;3.58;;;39.10;61.30;;;;;;5050154;28;20579;-62
2021/08/12 07:17:19;;;;;;;5.45;3.42;;;39.00;60.10;;;;;;5050359;28;20212;-63
2021/08/12 07:19:47;;;;;;;6.90;3.45;;;38.70;59.50;;;;;;5050103;28;20206;-63
2021/08/12 07:22:13;;;;;;;4.45;3.05;;;38.20;59.90;;;;;;5049958;28;20222;-62
2021/08/12 07:24:40;;;;;;;5.60;3.42;;;38.10;60.50;;;;;;5049870;28;20654;-62
2021/08/12 07:27:07;;;;;;;4.68;3.40;;;38.50;59.90;;;;;;5050314;28;20240;-63
2021/08/12 07:29:33;;;;;;;5.47;3.40;;;38.90;58.60;;;;;;5050327;28;20205;-62
2021/08/12 07:32:00;;;;;;;4.80;3.10;;;39.40;57.60;;;;;;5049957;28;20780;-63
2021/08/12 07:34:27;;;;;;;7.60;2.90;;;39.80;56.50;;;;;;5050126;28;20206;-64
2021/08/12 07:36:55;;;;;;;8.07;4.03;;;40.20;55.70;;;;;;5050168;28;20215;-63
2021/08/12 07:39:21;;;;;;;5.78;3.47;;;39.90;56.20;;;;;;5050142;28;20201;-62
2021/08/12 07:41:48;;;;;;;6.03;3.25;;;39.40;56.70;;;;;;5049992;28;20225;-62
2021/08/12 07:44:15;;;;;;;4.88;3.30;;;39.50;56.70;;;;;;5049977;28;20206;-62
2021/08/12 07:46:42;;;;;;;5.43;3.20;;;40.40;55.30;;;;;;5050150;28;20206;-63
2021/08/12 07:49:08;;;;;;;7.53;3.58;;;41.40;53.30;;;;;;5049724;28;20225;-63
2021/08/12 07:51:36;;;;;;;5.18;3.78;;;41.80;51.70;;;;;;5049811;28;20251;-60
2021/08/12 07:54:04;;;;;;;7.03;3.28;;;41.30;52.10;;;;;;5050036;28;20205;-59
2021/08/12 07:56:30;;;;;;;6.20;3.50;;;41.00;52.90;;;;;;5053645;28;20216;-60
2021/08/12 07:58:57;;;;;;;5.22;3.50;;;40.90;52.60;;;;;;5053726;28;20202;-60
2021/08/12 08:01:24;;;;;;;4.22;3.38;;;41.20;52.20;;;;;;5053835;28;20271;-60
2021/08/12 08:03:53;;;;;;;4.45;3.40;;;41.30;51.70;;;;;;5053802;28;20208;-60
2021/08/12 08:06:20;;;;;;;4.35;3.28;;;41.40;51.50;;;;;;5053619;28;20247;-60
2021/08/12 08:08:47;;;;;;;4.60;3.33;;;41.20;51.70;;;;;;5053353;28;20332;-60
2021/08/12 08:11:17;;;;;;;6.38;3.58;;;41.00;52.10;;;;;;5053187;28;20228;-60
2021/08/12 08:13:44;;;;;;;3.97;3.05;;;40.60;52.80;;;;;;5053108;28;20216;-60
2021/08/12 08:16:10;;;;;;;4.80;3.28;;;40.70;53.00;;;;;;5053274;28;20212;-59
2021/08/12 08:18:37;;;;;;;4.95;3.53;;;40.80;52.10;;;;;;5053132;28;20230;-59
2021/08/12 08:21:04;;;;;;;5.78;3.80;;;41.00;52.00;;;;;;5052998;28;20212;-59
2021/08/12 08:23:31;;;;;;;6.40;3.58;;;40.70;51.80;;;;;;5052961;28;20609;-58
2021/08/12 08:25:57;;;;;;;9.15;3.47;;;40.50;52.60;;;;;;5052894;28;20555;-58
2021/08/12 08:28:25;;;;;;;4.70;3.28;;;40.40;52.50;;;;;;5052714;28;20209;-59
2021/08/12 08:30:52;;;;;;;4.38;3.28;;;40.30;52.60;;;;;;5052734;28;20666;-59
2021/08/12 08:33:19;;;;;;;6.75;3.17;;;39.90;53.10;;;;;;5052684;28;20237;-58
2021/08/12 08:35:45;;;;;;;4.18;3.30;;;39.00;54.30;;;;;;5052680;28;20209;-58
2021/08/12 08:38:12;;;;;;;4.22;3.40;;;36.90;57.90;;;;;;5052896;28;20265;-58
2021/08/12 08:40:39;;;;;;;5.68;3.63;;;35.50;60.30;;;;;;5052535;28;20697;-58
2021/08/12 08:43:07;;;;;;;7.90;3.83;;;34.60;63.00;;;;;;5052373;28;20221;-58
2021/08/12 08:45:38;;;;;;;5.72;3.63;;;33.80;64.80;;;;;;5052331;28;20213;-60
2021/08/12 08:48:10;;;;;;;3.85;3.20;;;32.90;67.20;;;;;;5052847;28;20217;-58
2021/08/12 08:50:38;;;;;;;6.97;3.80;;;32.20;69.40;;;;;;5052560;28;20208;-58
2021/08/12 08:53:05;;;;;;;10.18;4.38;;;31.30;72.40;;;;;;5052491;28;20230;-58
2021/08/12 08:55:31;;;;;;;5.32;3.72;;;30.60;75.10;;;;;;5052331;28;20206;-58
2021/08/12 08:58:00;;;;;;;8.32;3.60;;;30.10;76.90;;;;;;5052394;28;20276;-58
2021/08/12 09:00:27;;;;;;;6.30;3.75;;;29.70;79.30;;;;;;5052791;28;20336;-58
2021/08/12 09:02:56;;;;;;;5.07;4.30;;;29.50;80.60;;;;;;5052112;28;20225;-58
2021/08/12 09:05:23;;;;;;;7.47;4.38;;;29.10;83.00;;;;;;5052218;28;20232;-58
2021/08/12 09:07:51;;;;;;;6.88;4.25;;;28.90;84.00;;;;;;5051547;28;20275;-58
2021/08/12 09:10:18;;;;;;;6.78;3.97;;;28.70;86.00;;;;;;5052111;28;20740;-58
2021/08/12 09:12:45;;;;;;;5.18;3.63;;;28.50;85.80;;;;;;5052018;28;20225;-58
2021/08/12 09:15:13;;;;;;;9.13;3.97;;;28.30;87.20;;;;;;5051979;28;20218;-58
2021/08/12 09:17:40;;;;;;;8.25;3.88;;;28.30;89.40;;;;;;5051867;28;20211;-57
2021/08/12 09:20:12;;;;;;;6.50;3.67;;;28.30;90.00;;;;;;5051782;28;20210;-57
2021/08/12 09:22:51;;;;;;;10.13;4.10;;;28.30;90.20;;;;;;5051909;28;20228;-57
2021/08/12 09:25:29;;;;;;;7.20;3.55;;;28.30;89.70;;;;;;5051805;28;20214;-57
2021/08/12 09:28:14;;;;;;;8.50;3.90;;;28.40;88.90;;;;;;5051869;28;20587;-57
2021/08/12 09:30:42;;;;;;;4.32;3.65;;;28.70;89.40;;;;;;5051865;28;20689;-58
2021/08/12 09:33:14;;;;;;;8.65;4.18;;;29.00;89.00;;;;;;5052245;28;20233;-58
2021/08/12 09:35:43;;;;;;;6.47;4.00;;;29.20;85.80;;;;;;5051572;28;20210;-58
2021/08/12 09:38:11;;;;;;;5.43;3.53;;;29.40;84.70;;;;;;5051489;28;20681;-58
2021/08/12 09:40:38;;;;;;;4.65;3.63;;;29.40;83.20;;;;;;5051683;28;20205;-58
2021/08/12 09:43:06;;;;;;;5.15;3.60;;;29.40;83.60;;;;;;5051380;28;20274;-58
2021/08/12 09:45:35;;;;;;;6.10;3.20;;;29.50;83.90;;;;;;5051250;28;20245;-58
2021/08/12 09:48:11;;;;;;;6.82;3.80;;;29.50;83.80;;;;;;5051121;28;20588;-59
2021/08/12 09:50:38;;;;;;;6.63;3.85;;;29.60;83.80;;;;;;5051532;28;20201;-59
2021/08/12 09:53:06;;;;;;;4.63;3.88;;;29.70;83.90;;;;;;5051231;28;20232;-59
2021/08/12 09:55:38;;;;;;;5.13;3.85;;;29.90;84.10;;;;;;5051080;28;20213;-59
2021/08/12 09:58:08;;;;;;;4.03;3.65;;;29.90;82.50;;;;;;5051045;28;20587;-59
2021/08/12 10:00:38;;;;;;;4.93;3.60;;;30.00;82.70;;;;;;5051155;28;20244;-59
2021/08/12 10:03:22;;;;;;;5.53;3.40;;;29.90;82.90;;;;;;5051270;28;20225;-59
2021/08/12 10:05:49;;;;;;;7.60;4.40;;;29.80;83.60;;;;;;5051224;28;20212;-59
2021/08/12 10:08:28;;;;;;;5.82;3.40;;;29.90;83.10;;;;;;5051110;28;20206;-59
2021/08/12 10:10:56;;;;;;;5.80;3.75;;;30.00;82.90;;;;;;5051143;28;20210;-59
2021/08/12 10:13:23;;;;;;;5.93;4.00;;;30.20;82.40;;;;;;5051419;28;20631;-59
2021/08/12 10:15:51;;;;;;;5.28;4.05;;;30.30;81.50;;;;;;5051263;28;20209;-59
2021/08/12 10:18:19;;;;;;;5.63;3.55;;;30.30;80.70;;;;;;5050271;28;20398;-59
2021/08/12 10:20:47;;;;;;;6.20;3.97;;;30.40;80.20;;;;;;5051554;28;20297;-59
2021/08/12 10:23:14;;;;;;;4.78;3.92;;;30.50;80.50;;;;;;5051048;28;20615;-59
2021/08/12 10:25:43;;;;;;;5.35;3.85;;;30.60;80.40;;;;;;5051078;28;20206;-59
2021/08/12 10:28:12;;;;;;;5.55;4.07;;;30.80;80.20;;;;;;5051134;28;20670;-59
2021/08/12 10:30:39;;;;;;;6.53;4.20;;;30.90;78.80;;;;;;5050893;28;20201;-59
2021/08/12 10:33:08;;;;;;;6.38;4.10;;;31.00;79.00;;;;;;5050500;28;20662;-59
2021/08/12 10:35:37;;;;;;;7.00;4.20;;;31.10;78.80;;;;;;5050601;28;20205;-59
2021/08/12 10:38:04;;;;;;;5.70;3.95;;;31.10;78.60;;;;;;5050285;28;20696;-59
2021/08/12 10:40:35;;;;;;;7.20;4.07;;;30.80;79.10;;;;;;5050650;28;20212;-59
2021/08/12 10:43:04;;;;;;;6.20;4.07;;;30.70;79.60;;;;;;5050411;28;20237;-59
2021/08/12 10:45:31;;;;;;;6.18;4.60;;;30.70;79.90;;;;;;5050336;28;20206;-59
2021/08/12 10:47:58;;;;;;;8.90;3.88;;;30.60;79.60;;;;;;5050059;28;20202;-59
2021/08/12 10:50:35;;;;;;;6.43;4.15;;;30.50;80.50;;;;;;5050258;28;20305;-59
2021/08/12 10:53:19;;;;;;;7.70;4.07;;;30.50;80.70;;;;;;5050383;28;20297;-59
2021/08/12 10:56:14;;;;;;;7.10;3.83;;;30.50;81.20;;;;;;5050175;28;20209;-59
2021/08/12 10:58:50;;;;;;;7.90;4.13;;;30.60;80.80;;;;;;5050200;28;20228;-59
2021/08/12 11:01:36;;;;;;;4.22;3.75;;;30.70;80.50;;;;;;5050214;28;20696;-59
2021/08/12 11:04:03;;;;;;;5.03;4.53;;;30.80;79.50;;;;;;5050370;28;20293;-59
2021/08/12 11:06:41;;;;;;;4.72;4.15;;;30.90;79.60;;;;;;5050218;28;20209;-59
2021/08/12 11:09:09;;;;;;;6.13;4.20;;;30.90;80.60;;;;;;5050016;28;20700;-59
2021/08/12 11:11:58;;;;;;;4.68;3.88;;;31.00;80.40;;;;;;5050113;28;20276;-59
2021/08/12 11:14:52;;;;;;;6.35;3.92;;;31.00;80.60;;;;;;5050220;28;20209;-59
2021/08/12 11:17:20;;;;;;;4.88;4.30;;;31.10;80.10;;;;;;5050795;28;20591;-59
2021/08/12 11:19:47;;;;;;;8.75;4.00;;;31.30;80.00;;;;;;5049900;28;20243;-60
2021/08/12 11:22:31;;;;;;;4.95;4.18;;;31.40;79.40;;;;;;5049970;28;20225;-60
2021/08/12 11:24:58;;;;;;;4.55;3.97;;;31.50;79.50;;;;;;5050163;28;20206;-60
2021/08/12 11:27:38;;;;;;;4.57;4.10;;;31.60;79.10;;;;;;5050176;28;20209;-60
2021/08/12 11:30:50;;;;;;;5.88;4.57;;;31.60;78.80;;;;;;5051604;28;20212;-60
2021/08/12 11:33:45;;;;;;;5.20;3.70;;;31.80;78.90;;;;;;5053797;28;20713;-60
2021/08/12 11:36:20;;;;;;;6.63;4.38;;;31.80;79.40;;;;;;5054149;28;20217;-60
2021/08/12 11:38:59;;;;;;;5.15;4.32;;;31.60;79.80;;;;;;5053924;28;20221;-60
2021/08/12 11:41:27;;;;;;;8.00;5.22;;;31.50;79.80;;;;;;5053984;28;20489;-60
2021/08/12 11:43:55;;;;;;;8.32;4.95;;;31.60;78.60;;;;;;5053679;28;20681;-60
2021/08/12 11:46:22;;;;;;;5.65;4.47;;;31.70;78.60;;;;;;5054110;28;20530;-59
2021/08/12 11:48:51;;;;;;;6.55;4.50;;;31.90;77.60;;;;;;5053678;28;20201;-59
2021/08/12 11:51:19;;;;;;;5.82;4.50;;;32.00;76.90;;;;;;5053627;28;20488;-59
2021/08/12 11:53:48;;;;;;;5.32;4.60;;;32.20;76.20;;;;;;5053416;28;20260;-59
2021/08/12 11:56:19;;;;;;;6.88;4.80;;;32.30;75.90;;;;;;5053920;28;20572;-59
2021/08/12 11:58:47;;;;;;;7.38;4.55;;;32.30;75.10;;;;;;5053356;28;20209;-60
2021/08/12 12:01:16;;;;;;;8.13;4.53;;;32.30;74.70;;;;;;5053431;28;20206;-59
2021/08/12 12:03:44;;;;;;;5.88;4.30;;;32.30;74.30;;;;;;5053257;28;20209;-59
2021/08/12 12:06:12;;;;;;;4.68;4.20;;;32.30;74.30;;;;;;5053548;28;20205;-59
2021/08/12 12:08:39;;;;;;;5.03;4.20;;;32.10;74.50;;;;;;5053179;28;20236;-59
2021/08/12 12:11:11;;;;;;;6.43;4.68;;;32.10;74.10;;;;;;5053480;28;20209;-59
2021/08/12 12:13:38;;;;;;;5.22;4.32;;;32.00;74.10;;;;;;5053162;28;20221;-59
2021/08/12 12:16:11;;;;;;;10.00;4.93;;;31.90;74.80;;;;;;5053562;28;20616;-59
2021/08/12 12:18:40;;;;;;;6.60;4.55;;;31.90;74.00;;;;;;5053280;28;20577;-59
2021/08/12 12:21:09;;;;;;;6.53;5.82;;;32.10;74.10;;;;;;5053030;28;20217;-60
2021/08/12 12:23:38;;;;;;;6.60;4.32;;;32.40;73.40;;;;;;5052849;28;20229;-60
2021/08/12 12:26:05;;;;;;;9.00;5.15;;;32.70;71.30;;;;;;5053049;28;20212;-60
2021/08/12 12:28:38;;;;;;;5.78;4.65;;;33.00;70.60;;;;;;5052853;28;20213;-60
2021/08/12 12:31:13;;;;;;;5.85;4.90;;;33.10;70.10;;;;;;5053459;28;20219;-60
2021/08/12 12:33:40;;;;;;;9.10;4.90;;;33.20;69.70;;;;;;5053095;28;20236;-60
2021/08/12 12:36:07;;;;;;;5.10;4.50;;;33.20;69.40;;;;;;5052988;28;20623;-60
2021/08/12 12:38:34;;;;;;;6.60;4.55;;;33.10;70.10;;;;;;5053047;28;20212;-60
2021/08/12 12:41:08;;;;;;;5.03;4.50;;;33.20;70.10;;;;;;5051965;28;20221;-60
2021/08/12 12:43:35;;;;;;;6.85;4.68;;;33.20;70.50;;;;;;5052317;28;20225;-60
2021/08/12 12:46:03;;;;;;;6.85;4.60;;;33.30;70.70;;;;;;5052833;28;20251;-60
2021/08/12 12:48:31;;;;;;;6.80;4.97;;;33.20;70.20;;;;;;5052742;28;20288;-63
2021/08/12 12:50:59;;;;;;;7.38;4.72;;;33.20;70.00;;;;;;5052551;28;20255;-63
2021/08/12 12:53:31;;;;;;;6.00;4.68;;;33.30;70.50;;;;;;5052785;28;20233;-64
2021/08/12 12:55:58;;;;;;;5.40;4.65;;;33.30;70.50;;;;;;5052764;28;20604;-63